Time;durP1;ratioP1;P1;durP2;ratioP2;P2;SDS_P1;SDS_P2;PMS_P1;PMS_P2;Temp;Humidity;BMP_temperature;BMP_pressure;BME280_temperature;BME280_humidity;BME280_pressure;Samples;Min_cycle;Max_cycle;Signal;HPM_P1;HPM_P2
2022/03/17 00:00:50;;;;;;;28.35;16.10;;;;;;;2.36;99.35;99431.78;4177296;28;20376;-71
2022/03/17 00:02:50;;;;;;;30.30;15.77;;;;;;;2.36;100.00;99427.13;4173367;28;20099;-71
2022/03/17 00:04:52;;;;;;;29.92;15.70;;;;;;;2.34;100.00;99418.44;4169489;28;20896;-71
2022/03/17 00:06:53;;;;;;;29.02;15.70;;;;;;;2.34;100.00;99417.63;4168901;28;20335;-71
2022/03/17 00:08:53;;;;;;;28.00;15.65;;;;;;;2.34;100.00;99414.88;4174327;28;20127;-71
2022/03/17 00:10:54;;;;;;;28.40;15.50;;;;;;;2.35;100.00;99417.31;4173021;28;20041;-71
2022/03/17 00:12:54;;;;;;;30.38;15.63;;;;;;;2.38;98.00;99411.25;4182812;28;20680;-71
2022/03/17 00:14:54;;;;;;;26.65;14.57;;;;;;;2.37;97.92;99420.53;4180870;28;20049;-71
2022/03/17 00:16:55;;;;;;;27.33;14.75;;;;;;;2.36;98.60;99413.47;4172071;28;20056;-71
2022/03/17 00:18:55;;;;;;;26.95;14.75;;;;;;;2.38;97.12;99403.03;4175031;28;20106;-71
2022/03/17 00:20:56;;;;;;;26.20;14.90;;;;;;;2.40;96.00;99408.19;4172871;28;20041;-71
2022/03/17 00:22:56;;;;;;;28.30;15.27;;;;;;;2.38;96.07;99404.97;4169535;28;20037;-71
2022/03/17 00:24:56;;;;;;;29.52;14.00;;;;;;;2.34;97.88;99387.59;4170373;28;20052;-71
2022/03/17 00:26:57;;;;;;;28.05;14.38;;;;;;;2.33;98.56;99389.50;4168631;28;20700;-71
2022/03/17 00:28:57;;;;;;;28.50;15.15;;;;;;;2.34;100.00;99393.03;4182027;28;20155;-71
2022/03/17 00:30:57;;;;;;;28.70;14.82;;;;;;;2.32;100.00;99401.53;4175851;28;20358;-71
2022/03/17 00:32:57;;;;;;;28.80;15.20;;;;;;;2.31;100.00;99402.63;4169351;28;20530;-71
2022/03/17 00:37:17;;;;;;;27.13;15.02;;;;;;;2.34;100.00;99393.03;4167424;28;20182;-71
2022/03/17 00:39:17;;;;;;;30.83;15.77;;;;;;;2.34;100.00;99390.31;4168949;28;20167;-71
2022/03/17 00:41:17;;;;;;;27.75;15.85;;;;;;;2.37;100.00;99390.50;4169035;28;20064;-71
2022/03/17 00:43:18;;;;;;;27.95;15.75;;;;;;;2.39;100.00;99374.63;4168962;28;20045;-71
2022/03/17 00:45:19;;;;;;;31.70;15.60;;;;;;;2.42;100.00;99378.69;4169544;28;20361;-71
2022/03/17 00:47:19;;;;;;;28.80;14.73;;;;;;;2.52;100.00;99373.03;4169368;28;20052;-71
2022/03/17 00:49:19;;;;;;;27.50;14.60;;;;;;;2.54;100.00;99381.72;4185171;28;20076;-71
2022/03/17 00:51:20;;;;;;;26.00;14.65;;;;;;;2.55;100.00;99377.88;4183230;28;20033;-71
2022/03/17 00:53:20;;;;;;;26.83;14.20;;;;;;;2.57;100.00;99375.66;4175243;28;20106;-71
2022/03/17 00:55:22;;;;;;;26.05;14.30;;;;;;;2.58;100.00;99376.47;4168783;28;20564;-71
2022/03/17 00:57:22;;;;;;;25.27;14.23;;;;;;;2.56;100.00;99382.22;4183242;28;20132;-71
2022/03/17 00:59:22;;;;;;;29.65;15.55;;;;;;;2.51;100.00;99382.34;4183879;28;20524;-71
2022/03/17 01:01:23;;;;;;;27.10;15.32;;;;;;;2.48;100.00;99383.75;4183501;28;20041;-71
2022/03/17 01:03:23;;;;;;;25.92;14.35;;;;;;;2.45;100.00;99372.59;4174461;28;20776;-71
2022/03/17 01:05:24;;;;;;;27.05;14.30;;;;;;;2.44;100.00;99388.19;4169137;28;20375;-71
2022/03/17 01:07:24;;;;;;;27.20;14.10;;;;;;;2.43;99.02;99377.56;4178249;28;20047;-71
2022/03/17 01:09:25;;;;;;;25.90;14.30;;;;;;;2.43;98.83;99391.22;4168917;28;20468;-71
2022/03/17 01:11:25;;;;;;;26.75;14.10;;;;;;;2.43;98.67;99397.50;4173139;28;20650;-71
2022/03/17 01:13:25;;;;;;;24.80;14.30;;;;;;;2.42;98.19;99386.88;4172528;28;20053;-71
2022/03/17 01:15:29;;;;;;;27.55;15.55;;;;;;;2.43;98.17;99388.50;4174120;28;20089;-71
2022/03/17 01:17:29;;;;;;;29.02;15.40;;;;;;;2.43;99.19;99392.03;4187408;28;20047;-71
2022/03/17 01:19:30;;;;;;;22.55;12.70;;;;;;;2.42;98.69;99375.97;4186176;28;20523;-71
2022/03/17 01:21:30;;;;;;;22.85;13.18;;;;;;;2.43;98.78;99378.38;4184551;28;20062;-71
2022/03/17 01:23:30;;;;;;;27.42;15.30;;;;;;;2.42;99.70;99379.50;4171735;28;20374;-71
2022/03/17 01:25:31;;;;;;;30.75;14.45;;;;;;;2.41;100.00;99374.34;4171940;28;20083;-71
2022/03/17 01:27:34;;;;;;;27.02;14.98;;;;;;;2.37;100.00;99378.78;4171542;28;20087;-71
2022/03/17 01:29:35;;;;;;;23.55;14.05;;;;;;;2.35;100.00;99379.06;4175434;28;20568;-71
2022/03/17 01:31:35;;;;;;;25.30;13.52;;;;;;;2.32;100.00;99379.69;4180593;28;20335;-70
2022/03/17 01:33:35;;;;;;;24.52;13.77;;;;;;;2.29;100.00;99388.47;4171709;28;20072;-70
2022/03/17 01:35:36;;;;;;;30.52;15.07;;;;;;;2.26;100.00;99402.72;4171893;28;20037;-71
2022/03/17 01:37:36;;;;;;;25.67;14.98;;;;;;;2.22;100.00;99385.31;4166799;28;20045;-71
2022/03/17 01:39:37;;;;;;;26.35;14.57;;;;;;;2.23;99.23;99379.59;4171082;28;20512;-70
2022/03/17 01:41:39;;;;;;;25.15;13.13;;;;;;;2.25;98.55;99392.94;4173619;28;20087;-70
2022/03/17 01:43:40;;;;;;;29.00;13.75;;;;;;;2.25;98.04;99385.53;4174695;28;20041;-70
2022/03/17 01:45:40;;;;;;;24.77;13.95;;;;;;;2.25;97.29;99371.88;4178120;28;20380;-71
2022/03/17 01:47:41;;;;;;;25.95;14.15;;;;;;;2.29;95.74;99377.53;4176905;28;20068;-71
2022/03/17 01:49:42;;;;;;;25.30;13.20;;;;;;;2.29;95.90;99384.94;4177036;28;20040;-71
2022/03/17 01:51:45;;;;;;;27.40;13.15;;;;;;;2.27;96.64;99381.69;4178906;28;20053;-71
2022/03/17 01:53:45;;;;;;;26.92;14.38;;;;;;;2.27;96.49;99384.44;4175498;28;20079;-71
2022/03/17 01:55:46;;;;;;;25.38;14.35;;;;;;;2.26;96.34;99378.16;4177515;28;20028;-71
2022/03/17 01:57:47;;;;;;;28.55;14.75;;;;;;;2.26;96.55;99383.63;4179450;28;20139;-71
2022/03/17 01:59:49;;;;;;;26.20;15.47;;;;;;;2.25;97.99;99380.09;4176038;28;20396;-71
2022/03/17 02:01:50;;;;;;;31.10;16.17;;;;;;;2.23;99.73;99379.59;4177724;28;20037;-71
2022/03/17 02:03:52;;;;;;;26.20;15.82;;;;;;;2.24;100.00;99383.13;4175564;28;20102;-71
2022/03/17 02:05:53;;;;;;;31.38;15.77;;;;;;;2.25;100.00;99379.28;4177072;28;20187;-71
2022/03/17 02:07:54;;;;;;;30.90;16.58;;;;;;;2.23;100.00;99384.19;4176495;28;20057;-71
2022/03/17 02:09:54;;;;;;;29.75;15.75;;;;;;;2.21;100.00;99387.25;4176702;28;20052;-71
2022/03/17 02:14:14;;;;;;;26.23;14.85;;;;;;;2.20;100.00;99382.91;4176196;28;20076;-71
2022/03/17 02:16:16;;;;;;;29.60;15.60;;;;;;;2.24;100.00;99385.84;4176638;28;20461;-71
2022/03/17 02:18:17;;;;;;;30.40;16.45;;;;;;;2.23;100.00;99386.94;4175859;28;20039;-71
2022/03/17 02:20:18;;;;;;;29.83;15.90;;;;;;;2.22;100.00;99380.66;4177132;28;20033;-71
2022/03/17 02:22:21;;;;;;;28.02;15.32;;;;;;;2.23;99.36;99386.94;4177836;28;20430;-71
2022/03/17 02:26:40;;;;;;;29.15;14.95;;;;;;;2.22;97.96;99377.94;4174589;28;20048;-70
2022/03/17 02:28:41;;;;;;;27.52;14.75;;;;;;;2.22;98.41;99377.13;4176938;28;20439;-70
2022/03/17 02:30:41;;;;;;;27.40;14.85;;;;;;;2.16;99.24;99372.91;4174538;28;20432;-70
2022/03/17 02:32:43;;;;;;;27.38;14.30;;;;;;;2.16;99.97;99383.81;4178083;28;20443;-71
2022/03/17 02:34:44;;;;;;;25.00;15.02;;;;;;;2.15;100.00;99388.47;4175860;28;20471;-71
2022/03/17 02:36:49;;;;;;;29.00;14.27;;;;;;;2.12;100.00;99388.25;4174525;28;20145;-71
2022/03/17 02:38:50;;;;;;;25.55;15.07;;;;;;;2.11;100.00;99389.34;4177659;28;20037;-71
2022/03/17 02:40:52;;;;;;;27.48;15.52;;;;;;;2.12;99.06;99391.78;4175739;28;20156;-71
2022/03/17 02:42:53;;;;;;;32.53;16.20;;;;;;;2.14;98.51;99386.00;4176447;28;20131;-71
2022/03/17 02:44:54;;;;;;;26.08;14.85;;;;;;;2.14;96.93;99375.09;4176463;28;20084;-71
2022/03/17 02:46:54;;;;;;;27.50;15.10;;;;;;;2.15;97.12;99379.44;4175681;28;20075;-71
2022/03/17 02:48:54;;;;;;;26.50;15.75;;;;;;;2.16;97.27;99373.69;4176535;28;20044;-71
2022/03/17 02:50:55;;;;;;;28.80;16.02;;;;;;;2.14;97.00;99375.91;4176812;28;20263;-71
2022/03/17 02:52:56;;;;;;;28.48;15.70;;;;;;;2.16;96.94;99372.91;4176502;28;20060;-71
2022/03/17 02:54:57;;;;;;;28.52;14.98;;;;;;;2.14;97.16;99380.56;4175657;28;20047;-71
2022/03/17 02:56:57;;;;;;;26.45;15.27;;;;;;;2.14;97.32;99380.56;4175916;28;20037;-71
2022/03/17 02:58:57;;;;;;;29.50;16.60;;;;;;;2.13;97.74;99382.47;4176313;28;20064;-71
2022/03/17 03:00:58;;;;;;;30.98;16.45;;;;;;;2.10;97.42;99391.28;4173697;28;20041;-71
2022/03/17 03:02:58;;;;;;;29.08;16.08;;;;;;;2.12;96.75;99393.69;4177305;28;20041;-71
2022/03/17 03:04:59;;;;;;;24.95;14.68;;;;;;;2.14;96.29;99392.28;4176180;28;20298;-71
2022/03/17 03:07:02;;;;;;;26.65;14.63;;;;;;;2.18;95.69;99396.03;4172426;28;20063;-71
2022/03/17 03:09:02;;;;;;;26.55;14.57;;;;;;;2.19;95.73;99405.03;4174636;28;20404;-71
2022/03/17 03:11:02;;;;;;;27.65;15.55;;;;;;;2.19;95.69;99396.84;4176348;28;20043;-71
2022/03/17 03:13:03;;;;;;;29.58;16.52;;;;;;;2.19;96.46;99400.38;4175687;28;20033;-71
2022/03/17 03:15:04;;;;;;;32.20;17.65;;;;;;;2.20;97.49;99403.94;4176502;28;20534;-71
2022/03/17 03:17:04;;;;;;;30.52;17.60;;;;;;;2.19;98.43;99405.84;4176387;28;20083;-71
2022/03/17 03:19:04;;;;;;;29.55;17.00;;;;;;;2.20;98.96;99399.28;4172702;28;20044;-71
2022/03/17 03:21:06;;;;;;;28.77;15.95;;;;;;;2.21;97.83;99391.91;4173565;28;20089;-71
2022/03/17 03:23:07;;;;;;;33.47;18.42;;;;;;;2.22;96.98;99394.31;4174361;28;20766;-71
2022/03/17 03:25:09;;;;;;;31.52;17.73;;;;;;;2.22;97.74;99394.31;4175674;28;20067;-71
2022/03/17 03:27:09;;;;;;;33.33;17.90;;;;;;;2.19;98.43;99392.19;4172913;28;20088;-71
2022/03/17 03:29:25;;;;;;;30.98;17.13;;;;;;;2.17;98.66;99404.53;4175690;28;20064;-71
2022/03/17 03:31:25;;;;;;;30.05;16.92;;;;;;;2.18;98.12;99406.97;4174288;28;20032;-71
2022/03/17 03:33:26;;;;;;;27.98;15.88;;;;;;;2.18;96.98;99412.44;4177297;28;20145;-71
2022/03/17 03:37:45;;;;;;;29.55;15.85;;;;;;;2.19;96.43;99415.97;4174902;28;20106;-71
2022/03/17 03:39:45;;;;;;;29.20;15.77;;;;;;;2.21;96.49;99421.94;4175865;28;20037;-71
2022/03/17 03:41:46;;;;;;;30.08;16.73;;;;;;;2.24;96.68;99415.88;4179994;28;20052;-71
2022/03/17 03:43:46;;;;;;;29.77;16.40;;;;;;;2.27;96.75;99420.75;4155157;28;20431;-71
2022/03/17 03:45:47;;;;;;;27.25;16.05;;;;;;;2.26;97.08;99419.13;4173108;28;20393;-71
2022/03/17 03:47:47;;;;;;;30.52;17.27;;;;;;;2.23;97.64;99415.09;4174501;28;20419;-71
2022/03/17 03:49:47;;;;;;;30.08;17.35;;;;;;;2.25;96.79;99422.97;4176000;28;20138;-71
2022/03/17 03:51:48;;;;;;;29.77;17.88;;;;;;;2.24;96.63;99411.22;4173353;28;20045;-71
2022/03/17 03:56:07;;;;;;;33.33;17.67;;;;;;;2.30;98.68;99413.84;4155029;28;20222;-71
2022/03/17 03:58:07;;;;;;;36.45;19.60;;;;;;;2.29;98.37;99404.84;4153947;28;20417;-71
2022/03/17 04:02:27;;;;;;;36.08;19.15;;;;;;;2.28;99.51;99410.63;4155099;28;20052;-71
2022/03/17 04:04:29;;;;;;;31.15;17.80;;;;;;;2.29;99.35;99413.03;4152862;28;20420;-71
2022/03/17 04:06:31;;;;;;;27.92;16.88;;;;;;;2.26;98.94;99413.66;4152977;28;20110;-71
2022/03/17 04:08:31;;;;;;;31.05;17.25;;;;;;;2.25;98.74;99410.13;4153186;28;20044;-71
2022/03/17 04:10:31;;;;;;;30.65;17.30;;;;;;;2.26;99.92;99408.19;4152917;28;20049;-71
2022/03/17 04:12:32;;;;;;;32.50;17.80;;;;;;;2.25;99.56;99395.66;4163602;28;20048;-71
2022/03/17 04:14:32;;;;;;;32.40;18.05;;;;;;;2.28;99.27;99408.69;4167263;28;20321;-71
2022/03/17 04:16:33;;;;;;;30.75;18.10;;;;;;;2.26;98.62;99408.19;4163597;28;20552;-71
2022/03/17 04:18:34;;;;;;;32.70;18.63;;;;;;;2.29;98.64;99409.50;4152985;28;20046;-71
2022/03/17 04:20:34;;;;;;;33.28;18.15;;;;;;;2.29;99.29;99412.25;4151593;28;20041;-71
2022/03/17 04:22:35;;;;;;;33.92;18.33;;;;;;;2.28;99.36;99405.16;4156351;28;20133;-71
2022/03/17 04:24:37;;;;;;;31.67;16.70;;;;;;;2.28;98.53;99410.63;4153006;28;20102;-71
2022/03/17 04:26:37;;;;;;;34.05;18.90;;;;;;;2.25;98.55;99412.84;4152215;28;20461;-71
2022/03/17 04:28:38;;;;;;;29.48;17.52;;;;;;;2.25;98.03;99407.38;4153372;28;20264;-71
2022/03/17 04:30:39;;;;;;;32.50;18.48;;;;;;;2.27;97.21;99414.47;4154999;28;20452;-71
2022/03/17 04:32:40;;;;;;;36.88;19.83;;;;;;;2.24;97.77;99416.69;4152776;28;20554;-71
2022/03/17 04:34:41;;;;;;;33.42;18.80;;;;;;;2.25;99.09;99420.22;4160155;28;20041;-71
2022/03/17 04:36:41;;;;;;;34.38;19.02;;;;;;;2.25;100.00;99414.78;4155453;28;20361;-71
2022/03/17 04:38:42;;;;;;;40.33;20.90;;;;;;;2.26;100.00;99419.13;4152464;28;20045;-71
2022/03/17 04:40:48;;;;;;;37.50;19.48;;;;;;;2.27;100.00;99422.66;4155922;28;20384;-71
2022/03/17 04:42:49;;;;;;;34.40;18.73;;;;;;;2.28;100.00;99430.53;4154775;28;20216;-71
2022/03/17 04:44:49;;;;;;;35.60;18.92;;;;;;;2.29;100.00;99434.09;4157788;28;20041;-71
2022/03/17 04:46:49;;;;;;;31.83;19.23;;;;;;;2.26;100.00;99427.31;4165232;28;20838;-71
2022/03/17 04:48:50;;;;;;;34.17;18.52;;;;;;;2.26;100.00;99438.22;4155694;28;20034;-71
2022/03/17 04:50:50;;;;;;;42.13;22.42;;;;;;;2.23;100.00;99439.66;4156123;28;20356;-71
2022/03/17 04:55:09;;;;;;;34.88;20.10;;;;;;;2.20;100.00;99437.50;4170412;28;20052;-71
2022/03/17 04:57:10;;;;;;;37.55;20.00;;;;;;;2.19;100.00;99444.06;4170747;28;20704;-71
2022/03/17 04:59:10;;;;;;;39.08;19.73;;;;;;;2.19;99.51;99430.44;4170423;28;20109;-71
2022/03/17 05:01:15;;;;;;;39.85;23.17;;;;;;;2.19;98.45;99427.69;4162937;28;20038;-71
2022/03/17 05:03:15;;;;;;;39.42;21.95;;;;;;;2.21;98.41;99430.94;4155628;28;20038;-71
2022/03/17 05:05:16;;;;;;;37.08;21.35;;;;;;;2.22;97.67;99434.47;4165098;28;20049;-71
2022/03/17 05:07:16;;;;;;;42.08;23.23;;;;;;;2.21;97.07;99439.13;4160292;28;20049;-71
2022/03/17 05:09:16;;;;;;;40.33;22.00;;;;;;;2.21;96.73;99432.84;4155412;28;20092;-71
2022/03/17 05:11:16;;;;;;;35.88;21.25;;;;;;;2.21;96.81;99439.13;4156228;28;20803;-71
2022/03/17 05:13:18;;;;;;;35.13;21.48;;;;;;;2.20;96.37;99431.22;4161603;28;20045;-71
2022/03/17 05:15:18;;;;;;;37.80;22.10;;;;;;;2.20;96.20;99439.41;4162605;28;20049;-71
2022/03/17 05:17:18;;;;;;;35.88;21.67;;;;;;;2.18;96.15;99436.19;4159030;28;20069;-71
2022/03/17 05:19:18;;;;;;;37.95;21.52;;;;;;;2.19;96.63;99435.88;4156471;28;20045;-71
2022/03/17 05:21:19;;;;;;;40.08;21.77;;;;;;;2.20;96.50;99440.22;4156156;28;20080;-71
2022/03/17 05:23:20;;;;;;;38.45;22.20;;;;;;;2.19;96.58;99444.06;4163197;28;20049;-71
2022/03/17 05:25:21;;;;;;;39.45;20.63;;;;;;;2.19;97.33;99454.19;4162478;28;20053;-71
2022/03/17 05:27:21;;;;;;;33.50;19.95;;;;;;;2.19;97.23;99446.00;4166221;28;20049;-71
2022/03/17 05:29:21;;;;;;;35.03;19.92;;;;;;;2.19;95.94;99443.28;4182452;28;20094;-71
2022/03/17 05:31:22;;;;;;;38.58;21.45;;;;;;;2.20;95.45;99444.88;4175261;28;20607;-71
2022/03/17 05:33:23;;;;;;;35.03;19.73;;;;;;;2.21;95.15;99447.31;4173628;28;20045;-71
2022/03/17 05:35:24;;;;;;;38.40;22.25;;;;;;;2.20;96.12;99444.88;4172385;28;20080;-70
2022/03/17 05:37:24;;;;;;;45.55;22.90;;;;;;;2.22;97.51;99451.66;4184653;28;20044;-70
2022/03/17 05:39:24;;;;;;;39.33;22.08;;;;;;;2.20;99.04;99450.34;4177911;28;20049;-70
2022/03/17 05:41:25;;;;;;;37.28;20.15;;;;;;;2.17;97.59;99457.22;4172117;28;20059;-70
2022/03/17 05:43:25;;;;;;;35.50;20.15;;;;;;;2.18;98.06;99450.66;4172047;28;20048;-70
2022/03/17 05:45:27;;;;;;;40.22;21.27;;;;;;;2.16;97.49;99450.16;4172882;28;20040;-70
2022/03/17 05:47:34;;;;;;;38.55;21.42;;;;;;;2.16;98.24;99458.34;4171181;28;20124;-71
2022/03/17 05:49:35;;;;;;;43.45;22.52;;;;;;;2.17;98.48;99451.75;4186394;28;20471;-71
2022/03/17 05:51:35;;;;;;;37.25;20.17;;;;;;;2.21;98.07;99457.44;4182964;28;20060;-71
2022/03/17 05:53:35;;;;;;;39.22;21.55;;;;;;;2.19;97.30;99460.47;4171972;28;20473;-71
2022/03/17 05:55:36;;;;;;;44.00;22.10;;;;;;;2.22;96.17;99448.94;4172355;28;20076;-71
2022/03/17 05:57:38;;;;;;;39.63;21.58;;;;;;;2.25;96.13;99458.47;4169420;28;20761;-71
2022/03/17 05:59:40;;;;;;;41.80;23.25;;;;;;;2.25;97.24;99448.34;4172885;28;20531;-71
2022/03/17 06:01:41;;;;;;;43.20;23.60;;;;;;;2.30;98.20;99457.53;4173125;28;20152;-71
2022/03/17 06:03:41;;;;;;;37.78;21.00;;;;;;;2.29;98.63;99451.28;4178295;28;20368;-71
2022/03/17 06:05:42;;;;;;;39.28;21.90;;;;;;;2.28;97.55;99452.38;4175579;28;20044;-71
2022/03/17 06:07:48;;;;;;;38.75;20.50;;;;;;;2.29;96.35;99450.47;4172732;28;20158;-71
2022/03/17 06:09:48;;;;;;;34.78;20.33;;;;;;;2.31;96.29;99446.31;4170843;28;20397;-71
2022/03/17 06:11:48;;;;;;;35.90;22.30;;;;;;;2.32;96.92;99445.25;4170728;28;20040;-71
2022/03/17 06:13:49;;;;;;;44.30;23.42;;;;;;;2.33;97.74;99440.59;4169680;28;20122;-71
2022/03/17 06:15:49;;;;;;;38.92;21.30;;;;;;;2.34;98.73;99447.66;4179045;28;20771;-71
2022/03/17 06:17:53;;;;;;;36.72;21.77;;;;;;;2.34;98.98;99440.28;4175941;28;20143;-71
2022/03/17 06:19:53;;;;;;;38.95;21.52;;;;;;;2.37;97.73;99447.06;4177250;28;20096;-71
2022/03/17 06:21:53;;;;;;;37.75;20.23;;;;;;;2.38;96.93;99452.22;4174361;28;20048;-71
2022/03/17 06:23:54;;;;;;;33.28;20.05;;;;;;;2.38;96.42;99444.00;4177641;28;20116;-71
2022/03/17 06:25:54;;;;;;;39.97;21.30;;;;;;;2.43;95.98;99445.84;4172961;28;20526;-71
2022/03/17 06:27:55;;;;;;;35.05;20.38;;;;;;;2.44;96.46;99442.81;4171157;28;20052;-71
2022/03/17 06:29:55;;;;;;;38.97;21.95;;;;;;;2.46;96.27;99447.97;4176393;28;20059;-71
2022/03/17 06:31:56;;;;;;;36.33;21.38;;;;;;;2.45;96.62;99447.16;4178547;28;20052;-71
2022/03/17 06:33:57;;;;;;;38.50;21.95;;;;;;;2.50;96.69;99451.75;4176310;28;20128;-71
2022/03/17 06:35:58;;;;;;;44.38;24.10;;;;;;;2.53;97.88;99462.88;4176722;28;20036;-71
2022/03/17 06:38:00;;;;;;;41.53;22.27;;;;;;;2.58;97.99;99463.91;4172931;28;20037;-71
2022/03/17 06:40:02;;;;;;;39.58;22.30;;;;;;;2.57;97.98;99468.56;4171520;28;20623;-71
2022/03/17 06:42:03;;;;;;;36.85;21.60;;;;;;;2.61;98.25;99466.00;4174868;28;20041;-71
2022/03/17 06:44:03;;;;;;;42.15;24.30;;;;;;;2.67;99.66;99468.34;4168036;28;20122;-71
2022/03/17 06:46:03;;;;;;;40.60;24.05;;;;;;;2.71;99.86;99474.03;4174212;28;20376;-71
2022/03/17 06:48:04;;;;;;;41.63;24.30;;;;;;;2.74;99.62;99466.03;4176356;28;20092;-71
2022/03/17 06:50:05;;;;;;;43.28;25.17;;;;;;;2.74;99.12;99474.25;4176292;28;20791;-71
2022/03/17 06:52:06;;;;;;;37.20;21.92;;;;;;;2.78;98.55;99479.91;4176882;28;20098;-71
2022/03/17 06:54:06;;;;;;;38.47;23.10;;;;;;;2.83;97.20;99479.00;4177458;28;20029;-71
2022/03/17 06:56:06;;;;;;;38.80;22.73;;;;;;;2.89;96.16;99478.59;4175285;28;20025;-71
2022/03/17 06:58:07;;;;;;;41.13;22.42;;;;;;;2.89;97.08;99477.78;4175151;28;20017;-71
2022/03/17 07:00:10;;;;;;;40.22;22.60;;;;;;;2.97;95.96;99482.53;4176832;28;20918;-71
2022/03/17 07:02:10;;;;;;;43.97;23.30;;;;;;;3.04;96.78;99477.47;4176694;28;20112;-71
2022/03/17 07:04:10;;;;;;;48.13;24.70;;;;;;;3.09;98.46;99480.13;4175221;28;20056;-71
2022/03/17 07:06:11;;;;;;;48.15;24.73;;;;;;;3.16;100.00;99479.72;4176108;28;20023;-71
2022/03/17 07:08:11;;;;;;;86.63;42.33;;;;;;;3.21;100.00;99474.94;4174410;28;20051;-71
2022/03/17 07:10:13;;;;;;;83.50;39.03;;;;;;;3.30;100.00;99480.50;4174699;28;20693;-71
2022/03/17 07:12:13;;;;;;;78.00;37.30;;;;;;;3.37;100.00;99483.63;4175360;28;20021;-71
2022/03/17 07:14:13;;;;;;;89.10;42.03;;;;;;;3.42;100.00;99483.53;4174790;28;20419;-71
2022/03/17 07:16:14;;;;;;;70.03;33.90;;;;;;;3.47;100.00;99480.69;4175196;28;20459;-71
2022/03/17 07:18:14;;;;;;;54.90;29.60;;;;;;;3.52;100.00;99477.03;4172551;28;20021;-71
2022/03/17 07:20:16;;;;;;;50.95;27.23;;;;;;;3.57;100.00;99466.78;4170718;28;20056;-71
2022/03/17 07:22:16;;;;;;;50.85;27.33;;;;;;;3.62;100.00;99468.59;4174200;28;20369;-71
2022/03/17 07:24:17;;;;;;;49.20;25.55;;;;;;;3.67;100.00;99468.50;4177129;28;20025;-71
2022/03/17 07:26:18;;;;;;;49.33;26.40;;;;;;;3.74;100.00;99473.53;4169684;28;20107;-71
2022/03/17 07:28:21;;;;;;;51.72;26.73;;;;;;;3.77;100.00;99472.91;4169775;28;20586;-71
2022/03/17 07:30:22;;;;;;;46.67;26.10;;;;;;;3.82;100.00;99478.28;4172298;28;20053;-71
2022/03/17 07:32:23;;;;;;;44.97;26.30;;;;;;;3.85;100.00;99483.94;4173754;28;20085;-71
2022/03/17 07:34:24;;;;;;;51.42;26.73;;;;;;;3.92;100.00;99498.03;4169102;28;20056;-71
2022/03/17 07:36:24;;;;;;;50.95;25.60;;;;;;;3.94;100.00;99501.25;4169910;28;20047;-71
2022/03/17 07:38:24;;;;;;;44.00;25.30;;;;;;;3.95;100.00;99494.66;4168836;28;20354;-71
2022/03/17 07:40:26;;;;;;;46.15;24.88;;;;;;;3.98;96.00;99504.19;4173356;28;20056;-71
2022/03/17 07:42:26;;;;;;;45.45;26.35;;;;;;;4.00;96.53;99503.88;4175452;28;20045;-71
2022/03/17 07:44:28;;;;;;;47.30;25.67;;;;;;;4.02;97.11;99507.13;4172520;28;20127;-71
2022/03/17 07:46:28;;;;;;;44.30;25.30;;;;;;;4.07;97.57;99507.81;4173904;28;20441;-71
2022/03/17 07:48:29;;;;;;;55.95;30.02;;;;;;;4.12;98.39;99504.13;4095152;28;20039;-71
2022/03/17 07:50:32;;;;;;;57.47;31.25;;;;;;;4.18;100.00;99509.19;4182589;28;20041;-71
2022/03/17 07:52:32;;;;;;;;;;;;;;;4.29;99.54;99503.44;4178689;28;20115;-71
2022/03/17 07:54:33;;;;;;;47.35;26.85;;;;;;;4.35;99.69;99513.97;4173924;28;19947;-71
2022/03/17 07:56:36;;;;;;;53.92;28.13;;;;;;;4.41;99.87;99510.00;4175966;28;20459;-71
2022/03/17 07:58:37;;;;;;;43.63;25.17;;;;;;;4.47;99.50;99506.00;4174908;28;20064;-71
2022/03/17 08:00:39;;;;;;;49.85;26.25;;;;;;;4.55;99.42;99507.19;4176030;28;20472;-71
2022/03/17 08:02:43;;;;;;;44.00;24.67;;;;;;;4.65;99.85;99514.34;4175002;28;20537;-71
2022/03/17 08:04:47;;;;;;;51.10;25.58;;;;;;;4.76;98.94;99502.78;4175431;28;20040;-71
2022/03/17 08:06:50;;;;;;;46.88;24.30;;;;;;;4.85;98.52;99504.75;4172709;28;20033;-71
2022/03/17 08:08:50;;;;;;;;;;;;;;;4.98;98.63;99512.09;4177225;28;20229;-71
2022/03/17 08:10:51;;;;;;;46.90;26.13;;;;;;;5.06;97.71;99520.34;4170532;28;20355;-71
2022/03/17 08:12:51;;;;;;;42.75;25.30;;;;;;;5.12;97.33;99509.22;4170836;28;20045;-71
2022/03/17 08:14:52;;;;;;;44.97;25.33;;;;;;;5.20;96.90;99511.19;4167757;28;20110;-71
2022/03/17 08:16:52;;;;;;;43.67;24.95;;;;;;;5.23;96.12;99513.31;4173135;28;20094;-71
2022/03/17 08:18:53;;;;;;;44.10;23.67;;;;;;;5.24;96.47;99512.19;4175666;28;20048;-71
2022/03/17 08:20:53;;;;;;;47.42;25.50;;;;;;;5.29;95.96;99512.03;4165214;28;20128;-71
2022/03/17 08:22:55;;;;;;;45.13;25.05;;;;;;;5.35;94.89;99516.25;4167517;28;20040;-71
2022/03/17 08:24:55;;;;;;;43.85;23.50;;;;;;;5.42;95.23;99511.13;4169643;28;20040;-71
2022/03/17 08:26:56;;;;;;;43.80;25.13;;;;;;;5.47;94.31;99518.41;4167661;28;20076;-70
2022/03/17 08:28:58;;;;;;;39.83;25.05;;;;;;;5.50;93.93;99513.06;4173367;28;20049;-70
2022/03/17 08:30:59;;;;;;;49.58;27.05;;;;;;;5.52;94.29;99521.78;4173987;28;20048;-70
2022/03/17 08:32:59;;;;;;;43.08;25.50;;;;;;;5.62;94.55;99517.94;4170784;28;20056;-70
2022/03/17 08:35:00;;;;;;;43.63;26.55;;;;;;;5.63;93.46;99514.91;4176915;28;20130;-70
2022/03/17 08:37:00;;;;;;;45.83;25.17;;;;;;;5.67;93.14;99517.00;4169132;28;20449;-70
2022/03/17 08:39:00;;;;;;;45.70;25.63;;;;;;;5.71;93.63;99509.72;4169731;28;20051;-71
2022/03/17 08:41:01;;;;;;;44.22;25.92;;;;;;;5.77;93.43;99516.69;4169383;28;20049;-71
2022/03/17 08:43:01;;;;;;;45.53;27.10;;;;;;;5.84;93.76;99517.00;4169982;28;20091;-71
2022/03/17 08:49:18;;;;;;;43.58;26.70;;;;;;;5.92;95.08;99524.50;4169268;28;20068;-71
2022/03/17 08:49:42;;;;;;;46.10;25.98;;;;;;;6.03;94.06;99524.97;4172753;28;20433;-71
2022/03/17 08:51:43;;;;;;;47.85;26.98;;;;;;;6.09;93.71;99524.50;4170706;28;20123;-71
2022/03/17 08:53:43;;;;;;;43.55;27.08;;;;;;;6.15;93.64;99516.91;4176250;28;20496;-71
2022/03/17 08:55:44;;;;;;;54.95;28.80;;;;;;;6.19;93.35;99507.69;4180836;28;20436;-71
2022/03/17 08:57:44;;;;;;;49.85;28.00;;;;;;;6.28;91.33;99520.59;4174062;28;20389;-71
2022/03/17 08:59:44;;;;;;;41.67;26.08;;;;;;;6.37;91.52;99525.00;4172705;28;20060;-70
2022/03/17 09:01:45;;;;;;;39.92;24.27;;;;;;;6.40;89.28;99523.53;4167240;28;20797;-70
2022/03/17 09:03:45;;;;;;;47.42;26.90;;;;;;;6.49;89.52;99524.31;4166986;28;20081;-70
2022/03/17 09:05:45;;;;;;;45.58;25.80;;;;;;;6.55;88.85;99531.28;4173924;28;20048;-70
2022/03/17 09:07:46;;;;;;;46.03;27.17;;;;;;;6.60;87.63;99535.78;4166576;28;20749;-71
2022/03/17 09:09:46;;;;;;;45.42;27.30;;;;;;;6.67;87.45;99527.84;4170986;28;20132;-71
2022/03/17 09:11:46;;;;;;;45.95;27.15;;;;;;;6.75;87.48;99538.03;4172310;28;20045;-71
2022/03/17 09:13:49;;;;;;;46.05;26.05;;;;;;;6.87;87.57;99542.84;4165193;28;20106;-71
2022/03/17 09:15:50;;;;;;;47.22;26.15;;;;;;;7.01;85.62;99546.22;4166289;28;20037;-71
2022/03/17 09:17:51;;;;;;;41.97;24.50;;;;;;;7.10;84.55;99540.69;4169576;28;20550;-71
2022/03/17 09:19:52;;;;;;;40.85;25.25;;;;;;;7.17;84.16;99541.78;4171243;28;20076;-71
2022/03/17 09:21:52;;;;;;;39.88;24.95;;;;;;;7.22;83.98;99544.38;4172527;28;20099;-71
2022/03/17 09:23:52;;;;;;;39.40;24.52;;;;;;;7.24;84.54;99553.09;4173695;28;20131;-71
2022/03/17 09:25:53;;;;;;;38.60;23.65;;;;;;;7.30;83.80;99550.97;4176809;28;20124;-71
2022/03/17 09:27:53;;;;;;;38.95;25.52;;;;;;;7.33;83.73;99553.06;4172942;28;20064;-71
2022/03/17 09:29:53;;;;;;;40.92;24.45;;;;;;;7.39;84.39;99559.19;4174689;28;20493;-71
2022/03/17 09:31:56;;;;;;;45.28;25.35;;;;;;;7.41;83.61;99556.91;4174729;28;20037;-71
2022/03/17 09:33:57;;;;;;;36.78;23.02;;;;;;;7.49;81.66;99564.34;4171873;28;20029;-71
2022/03/17 09:35:57;;;;;;;34.35;21.60;;;;;;;7.55;81.43;99561.06;4173697;28;20037;-71
2022/03/17 09:37:58;;;;;;;37.22;23.38;;;;;;;7.61;80.67;99569.94;4177807;28;20037;-71
2022/03/17 09:39:58;;;;;;;34.10;22.05;;;;;;;7.69;79.24;99568.28;4175406;28;20132;-71